createdAt,value
2024-05-09T00:03:44.294Z,0.40
2024-05-09T00:08:47.148Z,0.40
2024-05-09T00:13:49.532Z,0.50
2024-05-09T00:18:51.830Z,0.40
2024-05-09T00:23:54.298Z,0.60
2024-05-09T00:28:56.565Z,1.10
2024-05-09T00:33:58.922Z,0.30
2024-05-09T00:39:01.415Z,0.50
2024-05-09T00:44:04.642Z,1.45
2024-05-09T00:49:07.485Z,0.40
2024-05-09T00:54:10.913Z,0.40
2024-05-09T00:59:13.446Z,0.50
2024-05-09T01:04:15.781Z,0.80
2024-05-09T01:09:18.305Z,0.80
2024-05-09T01:14:20.717Z,1.48
2024-05-09T01:19:32.017Z,0.30
2024-05-09T01:24:34.403Z,2.05
2024-05-09T01:29:36.596Z,0.40
2024-05-09T01:34:38.856Z,1.30
2024-05-09T01:39:41.217Z,1.30
2024-05-09T01:44:43.757Z,0.75
2024-05-09T01:49:46.084Z,1.10
2024-05-09T01:54:48.299Z,1.20
2024-05-09T01:59:50.652Z,0.47
2024-05-09T02:04:54.570Z,1.90
2024-05-09T02:09:56.981Z,1.25
2024-05-09T02:14:59.352Z,0.52
2024-05-09T02:20:01.671Z,1.52
2024-05-09T02:25:04.025Z,0.40
2024-05-09T02:30:15.196Z,0.38
2024-05-09T02:35:25.179Z,0.70
2024-05-09T02:40:35.781Z,0.40
2024-05-09T02:45:40.797Z,0.50
2024-05-09T02:50:44.932Z,1.10
2024-05-09T02:55:47.514Z,0.50
2024-05-09T03:00:50.059Z,0.50
2024-05-09T03:05:52.464Z,0.45
2024-05-09T03:10:54.952Z,0.30
2024-05-09T03:16:00.019Z,0.40
2024-05-09T03:21:03.602Z,0.60
2024-05-09T03:26:11.256Z,1.10
2024-05-09T03:31:13.596Z,1.08
2024-05-09T03:36:15.890Z,0.45
2024-05-09T03:41:21.407Z,0.98
2024-05-09T03:46:23.928Z,1.23
2024-05-09T03:51:26.220Z,0.45
2024-05-09T03:56:28.558Z,1.13
2024-05-09T04:01:30.878Z,0.38
2024-05-09T04:06:33.987Z,0.40
2024-05-09T04:11:36.560Z,0.40
2024-05-09T04:16:39.024Z,0.55
2024-05-09T04:21:41.527Z,0.52
2024-05-09T04:26:44.180Z,0.47
2024-05-09T04:31:46.656Z,0.45
2024-05-09T04:36:50.167Z,0.50
2024-05-09T04:46:54.686Z,0.68
2024-05-09T04:51:56.987Z,0.40
2024-05-09T05:02:02.634Z,0.40
2024-05-09T05:07:05.311Z,1.35
2024-05-09T05:12:28.279Z,0.50
2024-05-09T05:17:30.746Z,0.63
2024-05-09T05:22:33.315Z,0.40
2024-05-09T05:32:37.889Z,1.27
2024-05-09T05:37:40.317Z,0.63
2024-05-09T05:42:42.933Z,0.50
2024-05-09T05:47:45.528Z,1.10
2024-05-09T05:52:48.068Z,1.60
2024-05-09T05:57:50.455Z,1.38
2024-05-09T06:02:53.291Z,1.33
2024-05-09T06:07:55.984Z,0.90
2024-05-09T06:12:58.300Z,4.25
2024-05-09T06:18:01.051Z,1.33
2024-05-09T06:23:04.106Z,1.13
2024-05-09T06:28:06.817Z,1.90
2024-05-09T06:33:11.796Z,1.50
2024-05-09T06:38:15.920Z,1.52
2024-05-09T06:43:19.555Z,0.60
2024-05-09T06:48:22.933Z,0.70
2024-05-09T06:53:28.399Z,1.23
2024-05-09T06:58:30.961Z,0.35
2024-05-09T07:03:33.410Z,0.52
2024-05-09T07:08:37.045Z,0.60
2024-05-09T07:13:39.225Z,1.08
2024-05-09T07:18:41.847Z,1.33
2024-05-09T07:23:46.861Z,0.75
2024-05-09T07:28:49.754Z,0.60
2024-05-09T07:33:52.635Z,1.33
2024-05-09T07:38:55.073Z,0.82
2024-05-09T07:43:57.731Z,5.75
2024-05-09T07:50:35.820Z,12.07
2024-05-09T07:54:23.277Z,0.90
2024-05-09T07:59:25.610Z,1.00
2024-05-09T08:04:28.215Z,0.70
2024-05-09T08:09:30.785Z,0.80
2024-05-09T08:14:33.920Z,2.33
2024-05-09T08:19:37.866Z,1.05
2024-05-09T08:24:40.411Z,2.17
2024-05-09T08:29:43.740Z,0.95
2024-05-09T08:34:46.059Z,0.98
2024-05-09T08:39:48.372Z,1.42
2024-05-09T08:44:52.640Z,9.90
2024-05-09T08:49:58.675Z,7.10
2024-05-09T08:55:01.537Z,2.20
2024-05-09T09:00:10.027Z,3.75
2024-05-09T09:05:17.523Z,5.68
2024-05-09T09:10:29.271Z,16.02
2024-05-09T09:15:34.497Z,19.55
2024-05-09T09:20:38.114Z,17.60
2024-05-09T09:25:41.039Z,16.35
2024-05-09T09:30:43.587Z,16.23
2024-05-09T09:35:46.556Z,16.02
2024-05-09T09:40:50.304Z,14.65
2024-05-09T09:45:55.660Z,13.95
2024-05-09T09:50:58.518Z,14.25
2024-05-09T09:56:02.359Z,18.42
2024-05-09T10:01:05.106Z,14.98
2024-05-09T10:06:08.084Z,13.60
2024-05-09T10:11:10.613Z,12.52
2024-05-09T10:16:13.340Z,9.82
2024-05-09T10:21:20.175Z,10.05
2024-05-09T10:31:33.261Z,10.13
2024-05-09T10:36:42.029Z,9.88
2024-05-09T10:41:44.317Z,10.60
2024-05-09T10:46:47.033Z,9.63
2024-05-09T10:51:50.644Z,9.43
2024-05-09T10:56:57.906Z,8.60
2024-05-09T11:02:04.086Z,10.68
2024-05-09T11:07:14.702Z,9.68
2024-05-09T11:12:19.983Z,10.05
2024-05-09T11:17:23.823Z,9.65
2024-05-09T11:22:32.399Z,9.40
2024-05-09T11:27:34.684Z,8.70
2024-05-09T11:32:37.971Z,9.80
2024-05-09T11:37:42.967Z,10.50
2024-05-09T11:42:49.951Z,9.82
2024-05-09T11:47:54.312Z,9.77
2024-05-09T11:52:57.279Z,7.28
2024-05-09T11:57:59.990Z,7.72
2024-05-09T12:03:05.360Z,8.77
2024-05-09T12:08:08.647Z,7.13
2024-05-09T12:13:11.246Z,6.32
2024-05-09T12:18:14.484Z,6.18
2024-05-09T12:23:16.862Z,5.13
2024-05-09T12:28:19.529Z,4.63
2024-05-09T12:33:22.150Z,4.25
2024-05-09T12:38:24.469Z,5.95
2024-05-09T12:43:26.848Z,6.40
2024-05-09T12:48:30.012Z,6.10
2024-05-09T12:53:32.514Z,8.75
2024-05-09T12:58:34.884Z,5.13
2024-05-09T13:03:41.218Z,4.75
2024-05-09T13:08:44.345Z,8.02
2024-05-09T13:13:46.532Z,8.02
2024-05-09T13:18:49.232Z,3.85
2024-05-09T13:23:52.853Z,3.92
2024-05-09T13:28:55.362Z,4.93
2024-05-09T13:33:57.958Z,3.90
2024-05-09T13:39:00.924Z,5.05
2024-05-09T13:44:03.602Z,3.78
2024-05-09T13:49:07.136Z,7.07
2024-05-09T13:54:11.231Z,14.02
2024-05-09T13:59:13.627Z,33.80
2024-05-09T14:04:16.235Z,8.25
2024-05-09T14:09:18.720Z,8.20
2024-05-09T14:14:21.969Z,6.70
2024-05-09T14:19:24.342Z,5.35
2024-05-09T14:24:26.900Z,6.57
2024-05-09T14:29:29.505Z,4.90
2024-05-09T14:34:31.951Z,5.18
2024-05-09T14:39:34.206Z,5.40
2024-05-09T14:44:36.692Z,4.63
2024-05-09T14:49:39.707Z,5.20
2024-05-09T14:54:42.705Z,6.32
2024-05-09T14:59:45.110Z,4.70
2024-05-09T15:04:47.946Z,3.70
2024-05-09T15:09:50.603Z,4.63
2024-05-09T15:14:53.388Z,5.35
2024-05-09T15:19:55.882Z,4.70
2024-05-09T15:24:58.518Z,3.72
2024-05-09T15:30:05.596Z,3.95
2024-05-09T15:35:10.694Z,4.60
2024-05-09T15:40:18.500Z,6.60
2024-05-09T15:45:29.416Z,5.88
2024-05-09T15:50:37.766Z,12.48
2024-05-09T15:55:43.440Z,6.55
2024-05-09T16:08:43.544Z,7.35
2024-05-09T16:13:46.611Z,5.60
2024-05-09T16:18:49.003Z,7.88
2024-05-09T16:23:51.488Z,5.65
2024-05-09T16:28:53.981Z,5.28
2024-05-09T16:33:56.186Z,4.55
2024-05-09T16:38:58.506Z,4.18
2024-05-09T16:44:03.038Z,4.45
2024-05-09T16:49:05.972Z,4.70
2024-05-09T16:54:08.452Z,5.88
2024-05-09T16:59:11.195Z,4.82
2024-05-09T17:04:13.763Z,3.90
2024-05-09T17:09:19.662Z,5.75
2024-05-09T17:14:22.358Z,4.90
2024-05-09T17:19:24.862Z,4.03
2024-05-09T17:24:27.309Z,3.63
2024-05-09T17:29:30.048Z,3.78
2024-05-09T17:34:32.380Z,3.78
2024-05-09T17:39:34.648Z,5.63
2024-05-09T17:44:37.024Z,8.25
2024-05-09T17:49:39.344Z,7.45
2024-05-09T17:54:41.699Z,5.53
2024-05-09T17:59:44.029Z,6.63
2024-05-09T18:04:46.602Z,3.92
2024-05-09T18:09:48.994Z,4.32
2024-05-09T18:14:54.191Z,3.53
2024-05-09T18:19:56.820Z,3.00
2024-05-09T18:24:59.237Z,3.22
2024-05-09T18:30:01.832Z,3.13
2024-05-09T18:35:04.513Z,6.35
2024-05-09T18:40:11.729Z,4.22
2024-05-09T18:45:14.436Z,5.07
2024-05-09T18:50:28.418Z,5.75
2024-05-09T18:55:37.869Z,2.97
2024-05-09T19:00:43.017Z,2.58
2024-05-09T19:10:53.503Z,2.15
2024-05-09T19:15:56.892Z,2.30
2024-05-09T19:21:00.048Z,1.80
2024-05-09T19:26:04.128Z,1.80
2024-05-09T19:31:06.598Z,1.90
2024-05-09T19:36:09.319Z,1.60
2024-05-09T19:41:12.162Z,1.60
2024-05-09T19:46:14.708Z,2.85
2024-05-09T19:51:16.953Z,2.17
2024-05-09T19:56:19.184Z,1.63
2024-05-09T20:01:21.623Z,2.17
2024-05-09T20:06:26.356Z,1.42
2024-05-09T20:11:28.704Z,1.08
2024-05-09T20:16:31.125Z,2.10
2024-05-09T20:21:33.474Z,1.85
2024-05-09T20:26:35.840Z,4.18
2024-05-09T20:31:39.051Z,4.90
2024-05-09T20:36:41.214Z,1.25
2024-05-09T20:41:44.053Z,1.45
2024-05-09T20:46:46.259Z,0.93
2024-05-09T20:51:48.944Z,1.60
2024-05-09T20:56:51.301Z,1.02
2024-05-09T21:01:53.663Z,2.47
2024-05-09T21:06:56.253Z,2.78
2024-05-09T21:11:58.460Z,1.70
2024-05-09T21:17:00.955Z,1.15
2024-05-09T21:22:03.248Z,1.23
2024-05-09T21:27:05.743Z,1.10
2024-05-09T21:32:08.437Z,0.95
2024-05-09T21:37:11.037Z,0.77
2024-05-09T21:42:13.462Z,0.63
2024-05-09T21:47:15.729Z,0.75
2024-05-09T21:52:19.543Z,1.10
2024-05-09T21:57:22.365Z,0.75
2024-05-09T22:02:25.035Z,0.60
2024-05-09T22:07:27.342Z,0.85
2024-05-09T22:12:29.718Z,2.05
2024-05-09T22:17:33.480Z,0.60
2024-05-09T22:22:36.150Z,0.57
2024-05-09T22:27:38.714Z,0.47
2024-05-09T22:32:41.232Z,1.45
2024-05-09T22:37:43.655Z,0.75
2024-05-09T22:42:46.058Z,1.00
2024-05-09T22:47:48.415Z,0.70
2024-05-09T22:52:50.658Z,1.92
2024-05-09T22:57:53.031Z,0.80
2024-05-09T23:02:55.318Z,1.27
2024-05-09T23:07:57.718Z,0.47
2024-05-09T23:13:00.079Z,0.70
2024-05-09T23:18:02.681Z,0.80
2024-05-09T23:23:06.030Z,2.55
2024-05-09T23:28:08.603Z,0.65
2024-05-09T23:33:12.893Z,0.50
2024-05-09T23:38:16.005Z,0.60
2024-05-09T23:43:19.166Z,1.10
2024-05-09T23:48:21.571Z,1.67
2024-05-09T23:53:24.012Z,0.68
2024-05-09T23:58:29.685Z,0.60
